createdAt,value
2017-12-20T00:00:49.557Z,5.07
2017-12-20T00:01:49.507Z,5.07
2017-12-20T00:03:42.875Z,5.07
2017-12-20T00:04:42.828Z,5.06
2017-12-20T00:06:36.187Z,5.12
2017-12-20T00:07:36.137Z,5.07
2017-12-20T00:09:32.018Z,5.11
2017-12-20T00:10:31.968Z,5.11
2017-12-20T00:12:25.317Z,5.04
2017-12-20T00:13:25.274Z,5.09
2017-12-20T00:15:18.628Z,5.12
2017-12-20T00:16:18.586Z,5.11
2017-12-20T00:18:14.461Z,5.12
2017-12-20T00:19:14.416Z,5.06
2017-12-20T00:21:07.780Z,5.06
2017-12-20T00:22:07.723Z,5.12
2017-12-20T00:24:01.078Z,5.12
2017-12-20T00:25:01.035Z,5.09
2017-12-20T00:26:56.924Z,5.19
2017-12-20T00:27:56.875Z,5.12
2017-12-20T00:29:50.238Z,5.09
2017-12-20T00:30:50.199Z,5.21
2017-12-20T00:32:43.532Z,5.15
2017-12-20T00:33:43.500Z,5.19
2017-12-20T00:35:36.889Z,5.14
2017-12-20T00:36:36.797Z,5.18
2017-12-20T00:38:30.382Z,5.18
2017-12-20T00:39:30.325Z,5.16
2017-12-20T00:41:23.680Z,5.18
2017-12-20T00:42:23.634Z,5.14
2017-12-20T00:44:16.990Z,5.18
2017-12-20T00:45:16.951Z,5.12
2017-12-20T00:47:10.316Z,5.19
2017-12-20T00:48:10.257Z,5.21
2017-12-20T00:50:03.612Z,5.16
2017-12-20T00:51:03.565Z,5.15
2017-12-20T00:52:59.470Z,5.22
2017-12-20T00:53:59.431Z,5.15
2017-12-20T00:55:52.804Z,5.16
2017-12-20T00:56:52.765Z,5.18
2017-12-20T00:58:48.653Z,5.19
2017-12-20T00:59:48.594Z,5.11
2017-12-20T01:01:41.465Z,5.16
2017-12-20T01:02:41.412Z,5.18
2017-12-20T01:04:34.762Z,5.18
2017-12-20T01:05:34.722Z,5.16
2017-12-20T01:07:28.080Z,5.15
2017-12-20T01:08:28.029Z,5.16
2017-12-20T01:10:21.384Z,5.12
2017-12-20T01:11:21.337Z,5.18
2017-12-20T01:13:14.697Z,5.15
2017-12-20T01:14:14.654Z,5.22
2017-12-20T01:16:07.997Z,5.15
2017-12-20T01:17:07.973Z,5.15
2017-12-20T01:19:02.184Z,5.14
2017-12-20T01:20:02.138Z,5.15
2017-12-20T01:21:56.393Z,5.14
2017-12-20T01:22:56.333Z,5.12
2017-12-20T01:24:49.715Z,5.15
2017-12-20T01:25:49.647Z,5.21
2017-12-20T01:27:43.046Z,5.15
2017-12-20T01:28:43.019Z,5.11
2017-12-20T01:30:36.309Z,5.12
2017-12-20T01:31:36.268Z,5.12
2017-12-20T01:33:29.617Z,5.16
2017-12-20T01:34:29.579Z,5.15
2017-12-20T01:36:22.927Z,5.14
2017-12-20T01:37:22.882Z,5.12
2017-12-20T01:39:16.243Z,5.15
2017-12-20T01:40:16.202Z,5.11
2017-12-20T01:42:09.555Z,5.15
2017-12-20T01:43:09.511Z,5.15
2017-12-20T01:45:02.912Z,5.12
2017-12-20T01:46:02.868Z,5.15
2017-12-20T01:47:56.234Z,5.12
2017-12-20T01:48:56.193Z,5.21
2017-12-20T01:50:49.549Z,5.15
2017-12-20T01:51:49.502Z,5.14
2017-12-20T01:53:45.347Z,5.15
2017-12-20T01:54:45.308Z,5.11
2017-12-20T01:56:38.668Z,5.21
2017-12-20T01:57:38.628Z,5.25
2017-12-20T01:59:31.967Z,5.12
2017-12-20T02:00:31.924Z,5.15
2017-12-20T02:02:27.771Z,5.18
2017-12-20T02:03:27.739Z,5.16
2017-12-20T02:05:21.124Z,5.14
2017-12-20T02:06:21.042Z,5.16
2017-12-20T02:08:16.902Z,5.16
2017-12-20T02:09:16.856Z,5.07
2017-12-20T02:11:10.208Z,5.18
2017-12-20T02:12:10.167Z,5.16
2017-12-20T02:14:03.527Z,5.06
2017-12-20T02:15:03.482Z,5.12
2017-12-20T02:16:56.836Z,5.16
2017-12-20T02:17:56.795Z,5.09
2017-12-20T02:19:50.157Z,5.14
2017-12-20T02:20:50.115Z,5.14
2017-12-20T02:22:43.486Z,5.14
2017-12-20T02:23:43.437Z,5.18
2017-12-20T02:25:36.786Z,5.18
2017-12-20T02:26:36.745Z,5.16
2017-12-20T02:28:30.090Z,5.12
2017-12-20T02:29:30.048Z,5.06
2017-12-20T02:31:23.427Z,5.12
2017-12-20T02:32:23.385Z,5.07
2017-12-20T02:34:19.284Z,5.06
2017-12-20T02:35:19.220Z,5.11
2017-12-20T02:37:12.556Z,5.12
2017-12-20T02:38:12.511Z,5.09
2017-12-20T02:40:05.864Z,5.18
2017-12-20T02:41:05.815Z,5.12
2017-12-20T02:42:59.213Z,5.04
2017-12-20T02:43:59.190Z,5.07
2017-12-20T02:45:52.492Z,5.12
2017-12-20T02:46:52.445Z,5.06
2017-12-20T02:48:49.186Z,5.14
2017-12-20T02:49:49.146Z,5.09
2017-12-20T02:51:42.496Z,5.16
2017-12-20T02:52:42.474Z,5.11
2017-12-20T02:54:35.816Z,5.15
2017-12-20T02:55:35.774Z,5.07
2017-12-20T02:57:29.117Z,5.22
2017-12-20T02:58:29.076Z,5.12
2017-12-20T03:00:22.437Z,5.06
2017-12-20T03:01:22.392Z,5.09
2017-12-20T03:03:15.751Z,5.12
2017-12-20T03:04:15.706Z,5.21
2017-12-20T03:06:09.077Z,5.15
2017-12-20T03:07:09.030Z,5.14
2017-12-20T03:09:02.395Z,5.04
2017-12-20T03:10:02.344Z,5.15
2017-12-20T03:11:55.708Z,5.12
2017-12-20T03:12:55.650Z,5.06
2017-12-20T03:14:49.002Z,5.04
2017-12-20T03:15:48.958Z,5.06
2017-12-20T03:17:42.337Z,5.21
2017-12-20T03:18:42.286Z,5.09
2017-12-20T03:20:35.642Z,5.12
2017-12-20T03:21:35.598Z,5.12
2017-12-20T03:23:28.979Z,5.18
2017-12-20T03:24:28.929Z,5.12
2017-12-20T03:26:22.294Z,5.11
2017-12-20T03:27:22.284Z,5.15
2017-12-20T03:29:15.608Z,5.06
2017-12-20T03:30:15.563Z,5.16
2017-12-20T03:32:08.936Z,5.03
2017-12-20T03:33:08.884Z,5.07
2017-12-20T03:35:02.223Z,5.14
2017-12-20T03:36:02.191Z,5.09
2017-12-20T03:37:55.549Z,5.16
2017-12-20T03:38:55.506Z,5.11
2017-12-20T03:40:48.871Z,5.09
2017-12-20T03:41:48.827Z,5.14
2017-12-20T03:43:42.182Z,5.06
2017-12-20T03:44:42.141Z,5.07
2017-12-20T03:46:35.506Z,5.07
2017-12-20T03:47:35.472Z,5.07
2017-12-20T03:49:28.831Z,5.09
2017-12-20T03:50:28.776Z,5.06
2017-12-20T03:52:22.145Z,5.11
2017-12-20T03:53:22.095Z,5.11
2017-12-20T03:55:15.458Z,5.11
2017-12-20T03:56:15.407Z,5.11
2017-12-20T03:58:08.768Z,5.09
2017-12-20T03:59:08.727Z,5.15
2017-12-20T04:01:04.616Z,5.12
2017-12-20T04:02:04.560Z,5.14
2017-12-20T04:03:57.918Z,5.07
2017-12-20T04:04:57.881Z,5.11
2017-12-20T04:06:53.729Z,5.09
2017-12-20T04:07:53.684Z,5.15
2017-12-20T04:09:47.045Z,5.06
2017-12-20T04:10:46.997Z,5.04
2017-12-20T04:12:40.381Z,5.04
2017-12-20T04:13:40.302Z,5.00
2017-12-20T04:15:33.657Z,5.01
2017-12-20T04:16:33.612Z,5.04
2017-12-20T04:18:26.979Z,4.98
2017-12-20T04:19:26.930Z,5.00
2017-12-20T04:21:20.275Z,5.00
2017-12-20T04:22:20.234Z,5.06
2017-12-20T04:24:13.589Z,4.98
2017-12-20T04:25:13.548Z,5.06
2017-12-20T04:27:09.437Z,4.97
2017-12-20T04:28:09.431Z,5.01
2017-12-20T04:30:03.745Z,5.01
2017-12-20T04:31:03.700Z,5.03
2017-12-20T04:32:57.204Z,4.91
2017-12-20T04:33:57.017Z,4.96
2017-12-20T04:35:50.357Z,4.97
2017-12-20T04:36:50.336Z,4.94
2017-12-20T04:38:43.663Z,4.86
2017-12-20T04:39:43.622Z,5.03
2017-12-20T04:41:36.974Z,4.94
2017-12-20T04:42:36.957Z,5.00
2017-12-20T04:44:29.796Z,4.97
2017-12-20T04:45:29.754Z,5.03
2017-12-20T04:47:23.121Z,4.96
2017-12-20T04:48:23.068Z,5.00
2017-12-20T04:50:16.465Z,4.96
2017-12-20T04:51:16.385Z,5.00
2017-12-20T04:53:09.781Z,5.01
2017-12-20T04:54:09.716Z,5.03
2017-12-20T04:56:03.055Z,5.00
2017-12-20T04:57:03.015Z,5.01
2017-12-20T04:58:56.381Z,5.00
2017-12-20T04:59:56.334Z,4.93
2017-12-20T05:01:49.678Z,4.98
2017-12-20T05:02:49.636Z,4.93
2017-12-20T05:04:43.011Z,4.85
2017-12-20T05:05:42.971Z,4.88
2017-12-20T05:07:36.313Z,4.97
2017-12-20T05:08:36.268Z,4.86
2017-12-20T05:10:29.623Z,4.85
2017-12-20T05:11:29.576Z,4.91
2017-12-20T05:13:22.987Z,4.97
2017-12-20T05:14:22.948Z,5.01
2017-12-20T05:16:18.802Z,4.97
2017-12-20T05:17:18.755Z,4.96
2017-12-20T05:19:12.116Z,4.94
2017-12-20T05:20:12.074Z,5.01
2017-12-20T05:22:07.934Z,4.97
2017-12-20T05:23:07.883Z,5.03
2017-12-20T05:25:01.230Z,5.00
2017-12-20T05:26:01.247Z,5.01
2017-12-20T05:27:57.048Z,5.06
2017-12-20T05:28:57.006Z,4.94
2017-12-20T05:30:52.879Z,5.03
2017-12-20T05:31:52.842Z,5.00
2017-12-20T05:33:46.184Z,5.01
2017-12-20T05:34:46.142Z,5.09
2017-12-20T05:36:39.505Z,4.98
2017-12-20T05:37:39.460Z,5.00
2017-12-20T05:39:32.828Z,5.04
2017-12-20T05:40:32.775Z,4.96
2017-12-20T05:42:26.135Z,4.93
2017-12-20T05:43:26.095Z,4.94
2017-12-20T05:45:19.463Z,5.00
2017-12-20T05:46:19.419Z,4.96
2017-12-20T05:48:12.765Z,4.96
2017-12-20T05:49:12.730Z,4.94
2017-12-20T05:51:06.082Z,4.96
2017-12-20T05:52:06.030Z,5.00
2017-12-20T05:53:58.934Z,4.96
2017-12-20T05:54:58.926Z,4.98
2017-12-20T05:56:52.239Z,4.94
2017-12-20T05:57:52.211Z,4.83
2017-12-20T05:59:45.570Z,5.01
2017-12-20T06:00:45.503Z,4.93
2017-12-20T06:02:38.864Z,5.04
2017-12-20T06:03:38.818Z,4.94
2017-12-20T06:05:32.176Z,5.03
2017-12-20T06:06:32.133Z,4.98
2017-12-20T06:08:25.512Z,5.03
2017-12-20T06:09:25.467Z,5.00
2017-12-20T06:11:18.828Z,5.00
2017-12-20T06:12:18.785Z,4.97
2017-12-20T06:14:12.136Z,5.01
2017-12-20T06:15:12.095Z,5.07
2017-12-20T06:17:05.444Z,4.91
2017-12-20T06:18:05.403Z,5.03
2017-12-20T06:19:58.746Z,4.98
2017-12-20T06:20:58.712Z,4.96
2017-12-20T06:22:52.081Z,4.94
2017-12-20T06:23:52.035Z,4.97
2017-12-20T06:25:47.881Z,4.96
2017-12-20T06:26:47.837Z,5.04
2017-12-20T06:28:41.201Z,4.97
2017-12-20T06:29:41.162Z,4.98
2017-12-20T06:31:34.503Z,4.94
2017-12-20T06:32:34.461Z,5.00
2017-12-20T06:34:27.812Z,5.00
2017-12-20T06:35:27.767Z,5.03
2017-12-20T06:37:21.127Z,5.01
2017-12-20T06:38:21.085Z,5.09
2017-12-20T06:40:15.317Z,5.01
2017-12-20T06:41:15.271Z,4.94
2017-12-20T06:43:08.625Z,5.06
2017-12-20T06:44:08.582Z,5.00
2017-12-20T06:46:04.437Z,5.00
2017-12-20T06:47:04.396Z,4.94
2017-12-20T06:48:57.747Z,4.97
2017-12-20T06:49:57.754Z,4.96
2017-12-20T06:51:51.073Z,5.07
2017-12-20T06:52:51.019Z,5.06
2017-12-20T06:54:44.372Z,5.01
2017-12-20T06:55:44.330Z,5.03
2017-12-20T06:57:37.687Z,4.97
2017-12-20T06:58:37.652Z,5.06
2017-12-20T07:00:31.003Z,4.98
2017-12-20T07:01:30.958Z,4.96
2017-12-20T07:03:24.329Z,4.94
2017-12-20T07:04:24.276Z,5.01
2017-12-20T07:06:18.463Z,4.98
2017-12-20T07:07:18.420Z,4.97
2017-12-20T07:09:12.805Z,4.96
2017-12-20T07:10:12.760Z,5.03
2017-12-20T07:12:06.989Z,4.98
2017-12-20T07:13:06.962Z,5.03
2017-12-20T07:15:01.192Z,4.91
2017-12-20T07:16:01.145Z,4.97
2017-12-20T07:17:54.510Z,4.98
2017-12-20T07:18:54.471Z,4.98
2017-12-20T07:20:47.871Z,5.03
2017-12-20T07:21:47.828Z,4.97
2017-12-20T07:23:43.705Z,5.00
2017-12-20T07:24:43.660Z,5.01
2017-12-20T07:26:37.022Z,5.01
2017-12-20T07:27:36.969Z,5.04
2017-12-20T07:29:30.333Z,5.00
2017-12-20T07:30:30.287Z,4.96
2017-12-20T07:32:23.656Z,5.03
2017-12-20T07:33:23.616Z,4.98
2017-12-20T07:35:16.970Z,5.01
2017-12-20T07:36:16.919Z,5.00
2017-12-20T07:38:11.280Z,5.07
2017-12-20T07:39:11.226Z,5.07
2017-12-20T07:41:04.584Z,5.07
2017-12-20T07:43:20.412Z,5.12
2017-12-20T07:44:20.363Z,5.12
2017-12-20T07:46:13.750Z,5.11
2017-12-20T07:47:13.702Z,5.09
2017-12-20T07:49:09.581Z,5.16
2017-12-20T07:50:09.540Z,5.19
2017-12-20T07:52:02.916Z,5.14
2017-12-20T07:53:02.890Z,5.16
2017-12-20T07:54:56.200Z,5.19
2017-12-20T07:55:56.156Z,5.15
2017-12-20T07:57:49.632Z,5.12
2017-12-20T07:58:49.486Z,5.14
2017-12-20T08:00:42.977Z,5.15
2017-12-20T08:01:42.779Z,5.15
2017-12-20T08:03:36.133Z,5.15
2017-12-20T08:04:36.088Z,5.12
2017-12-20T08:06:30.303Z,5.14
2017-12-20T08:07:30.272Z,5.15
2017-12-20T08:09:23.627Z,5.19
2017-12-20T08:10:23.578Z,5.19
2017-12-20T08:12:16.930Z,5.21
2017-12-20T08:13:16.934Z,5.25
2017-12-20T08:15:10.257Z,5.22
2017-12-20T08:16:10.210Z,5.18
2017-12-20T08:18:06.071Z,5.25
2017-12-20T08:19:06.020Z,5.29
2017-12-20T08:20:59.369Z,5.30
2017-12-20T08:21:59.326Z,5.29
2017-12-20T08:23:52.713Z,5.32
2017-12-20T08:24:52.638Z,5.21
2017-12-20T08:26:45.979Z,5.21
2017-12-20T08:27:45.976Z,5.32
2017-12-20T08:29:39.293Z,5.32
2017-12-20T08:30:39.248Z,5.30
2017-12-20T08:32:33.463Z,5.30
2017-12-20T08:33:33.422Z,5.32
2017-12-20T08:35:26.781Z,5.32
2017-12-20T08:36:26.736Z,5.33
2017-12-20T08:38:20.152Z,5.18
2017-12-20T08:39:20.054Z,5.22
2017-12-20T08:41:16.994Z,5.11
2017-12-20T08:42:16.997Z,5.19
2017-12-20T08:43:16.929Z,5.12
2017-12-20T08:44:16.903Z,5.11
2017-12-20T08:45:16.876Z,5.14
2017-12-20T08:46:16.846Z,5.11
2017-12-20T08:47:16.826Z,5.14
2017-12-20T08:48:16.800Z,5.14
2017-12-20T08:49:16.796Z,5.07
2017-12-20T08:50:16.748Z,5.15
2017-12-20T08:51:16.725Z,5.07
2017-12-20T08:52:16.732Z,5.12
2017-12-20T08:53:16.676Z,5.22
2017-12-20T08:54:16.663Z,5.09
2017-12-20T08:55:16.628Z,5.15
2017-12-20T08:56:16.602Z,5.14
2017-12-20T08:57:16.588Z,5.12
2017-12-20T08:58:16.550Z,5.11
2017-12-20T08:59:16.530Z,5.14
2017-12-20T09:00:16.511Z,5.09
2017-12-20T09:01:16.471Z,5.12
2017-12-20T09:02:16.449Z,5.12
2017-12-20T09:03:16.641Z,5.09
2017-12-20T09:04:16.405Z,5.12
2017-12-20T09:05:16.381Z,5.09
2017-12-20T09:06:16.347Z,5.07
2017-12-20T09:07:16.324Z,5.16
2017-12-20T09:08:16.306Z,5.25
2017-12-20T09:09:16.272Z,5.24
2017-12-20T09:10:16.249Z,5.25
2017-12-20T09:11:16.220Z,5.21
2017-12-20T09:12:16.193Z,5.15
2017-12-20T09:13:16.179Z,5.12
2017-12-20T09:14:16.145Z,5.15
2017-12-20T09:15:16.122Z,5.12
2017-12-20T09:16:16.106Z,5.18
2017-12-20T09:17:16.069Z,5.16
2017-12-20T09:18:16.045Z,5.06
2017-12-20T09:19:16.023Z,5.18
2017-12-20T09:20:15.995Z,5.07
2017-12-20T09:21:15.972Z,5.04
2017-12-20T09:22:15.943Z,5.11
2017-12-20T09:23:15.920Z,5.15
2017-12-20T09:24:15.908Z,5.21
2017-12-20T09:25:15.867Z,5.15
2017-12-20T09:26:15.843Z,5.11
2017-12-20T09:27:15.822Z,5.19
2017-12-20T09:28:15.793Z,5.16
2017-12-20T09:29:15.774Z,5.15
2017-12-20T09:30:15.743Z,5.21
2017-12-20T09:31:15.718Z,5.14
2017-12-20T09:32:15.696Z,5.16
2017-12-20T09:33:15.667Z,5.24
2017-12-20T09:34:15.651Z,5.19
2017-12-20T09:35:15.624Z,5.27
2017-12-20T09:36:15.593Z,5.29
2017-12-20T09:37:15.569Z,5.33
2017-12-20T09:38:15.542Z,5.32
2017-12-20T09:39:15.515Z,5.30
2017-12-20T09:40:15.490Z,5.32
2017-12-20T09:41:15.467Z,5.32
2017-12-20T09:42:15.441Z,5.40
2017-12-20T09:43:15.413Z,5.44
2017-12-20T09:44:15.388Z,5.36
2017-12-20T09:45:15.372Z,5.32
2017-12-20T09:46:15.340Z,5.36
2017-12-20T09:47:15.317Z,5.34
2017-12-20T09:48:15.294Z,5.39
2017-12-20T09:49:15.268Z,5.33
2017-12-20T09:50:15.238Z,5.32
2017-12-20T09:51:15.213Z,5.27
2017-12-20T09:52:15.197Z,5.32
2017-12-20T09:53:15.163Z,5.30
2017-12-20T09:54:15.140Z,5.30
2017-12-20T09:55:15.116Z,5.27
2017-12-20T09:56:15.090Z,5.30
2017-12-20T09:57:15.065Z,5.36
2017-12-20T09:58:15.050Z,5.34
2017-12-20T09:59:15.015Z,5.37
2017-12-20T10:00:14.986Z,5.37
2017-12-20T10:01:14.969Z,5.30
2017-12-20T10:02:14.938Z,5.36
2017-12-20T10:03:14.915Z,5.39
2017-12-20T10:04:14.892Z,5.36
2017-12-20T10:05:14.861Z,5.43
2017-12-20T10:06:14.838Z,5.36
2017-12-20T10:07:14.811Z,5.44
2017-12-20T10:08:14.786Z,5.39
2017-12-20T10:09:14.761Z,5.41
2017-12-20T10:10:14.738Z,5.36
2017-12-20T10:11:14.711Z,5.43
2017-12-20T10:12:14.687Z,5.50
2017-12-20T10:13:14.663Z,5.44
2017-12-20T10:14:14.636Z,5.44
2017-12-20T10:15:14.613Z,5.40
2017-12-20T10:16:14.588Z,5.37
2017-12-20T10:17:14.573Z,5.36
2017-12-20T10:18:14.538Z,5.39
2017-12-20T10:19:14.515Z,5.39
2017-12-20T10:20:14.488Z,5.47
2017-12-20T10:21:14.461Z,5.37
2017-12-20T10:22:14.444Z,5.39
2017-12-20T10:23:14.413Z,5.37
2017-12-20T10:24:14.388Z,5.36
2017-12-20T10:25:14.361Z,5.36
2017-12-20T10:26:14.344Z,5.32
2017-12-20T10:27:14.311Z,5.36
2017-12-20T10:28:14.304Z,5.33
2017-12-20T10:29:14.258Z,5.34
2017-12-20T10:30:14.248Z,5.32
2017-12-20T10:31:14.217Z,5.32
2017-12-20T10:32:14.186Z,5.32
2017-12-20T10:33:14.171Z,5.33
2017-12-20T10:34:14.138Z,5.33
2017-12-20T10:35:14.128Z,5.32
2017-12-20T10:36:14.089Z,5.32
2017-12-20T10:37:14.057Z,5.37
2017-12-20T10:38:14.038Z,5.40
2017-12-20T10:39:14.013Z,5.41
2017-12-20T10:40:13.984Z,5.32
2017-12-20T10:41:13.960Z,5.30
2017-12-20T10:42:13.942Z,5.34
2017-12-20T10:43:13.909Z,5.36
2017-12-20T10:44:13.918Z,5.33
2017-12-20T10:45:13.859Z,5.41
2017-12-20T10:46:13.848Z,5.44
2017-12-20T10:47:13.808Z,5.44
2017-12-20T10:48:13.792Z,5.40
2017-12-20T10:49:13.769Z,5.47
2017-12-20T10:50:13.742Z,5.41
2017-12-20T10:51:13.710Z,5.48
2017-12-20T10:52:13.688Z,5.50
2017-12-20T10:53:13.666Z,5.47
2017-12-20T10:54:13.634Z,5.39
2017-12-20T10:55:13.608Z,5.51
2017-12-20T10:56:13.613Z,5.50
2017-12-20T10:57:13.562Z,5.55
2017-12-20T10:58:13.536Z,5.55
2017-12-20T10:59:13.532Z,5.57
2017-12-20T11:00:13.491Z,5.50
2017-12-20T11:01:13.459Z,5.57
2017-12-20T11:02:13.434Z,5.59
2017-12-20T11:03:13.409Z,5.61
2017-12-20T11:04:13.387Z,5.61
2017-12-20T11:05:13.396Z,5.62
2017-12-20T11:06:13.335Z,5.51
2017-12-20T11:07:13.313Z,5.65
2017-12-20T11:08:13.325Z,5.67
2017-12-20T11:09:13.261Z,5.61
2017-12-20T11:10:13.233Z,5.65
2017-12-20T11:11:13.209Z,5.59
2017-12-20T11:12:13.191Z,5.61
2017-12-20T11:13:13.158Z,5.58
2017-12-20T11:14:13.134Z,5.59
2017-12-20T11:15:13.132Z,5.57
2017-12-20T11:16:13.088Z,5.69
2017-12-20T11:17:13.059Z,5.69
2017-12-20T11:18:13.050Z,5.62
2017-12-20T11:19:13.011Z,5.65
2017-12-20T11:20:12.983Z,5.66
2017-12-20T11:21:12.965Z,5.61
2017-12-20T11:22:12.933Z,5.62
2017-12-20T11:23:12.908Z,5.75
2017-12-20T11:24:12.883Z,5.69
2017-12-20T11:25:12.858Z,5.67
2017-12-20T11:26:12.836Z,5.62
2017-12-20T11:27:12.811Z,5.69
2017-12-20T11:28:12.787Z,5.70
2017-12-20T11:29:12.801Z,5.67
2017-12-20T11:30:12.735Z,5.76
2017-12-20T11:31:12.708Z,5.67
2017-12-20T11:32:12.683Z,5.75
2017-12-20T11:33:12.665Z,5.73
2017-12-20T11:34:12.639Z,5.75
2017-12-20T11:35:12.612Z,5.84
2017-12-20T11:36:12.928Z,5.77
2017-12-20T11:37:12.569Z,5.77
2017-12-20T11:38:12.535Z,5.65
2017-12-20T11:39:12.508Z,5.70
2017-12-20T11:40:12.483Z,5.75
2017-12-20T11:41:35.980Z,5.70
2017-12-20T11:42:12.441Z,5.67
2017-12-20T11:43:12.414Z,5.66
2017-12-20T11:44:12.419Z,5.66
2017-12-20T11:45:12.361Z,5.58
2017-12-20T11:46:12.335Z,5.65
2017-12-20T11:47:12.320Z,5.58
2017-12-20T11:48:12.289Z,5.66
2017-12-20T11:49:12.266Z,5.58
2017-12-20T11:50:12.241Z,5.54
2017-12-20T11:51:12.219Z,5.62
2017-12-20T11:52:12.187Z,5.59
2017-12-20T11:53:12.168Z,5.58
2017-12-20T11:54:12.139Z,5.61
2017-12-20T11:55:12.124Z,5.62
2017-12-20T11:56:12.093Z,5.57
2017-12-20T11:57:12.060Z,5.59
2017-12-20T11:58:12.053Z,5.66
2017-12-20T11:59:12.012Z,5.66
2017-12-20T12:00:11.985Z,5.66
2017-12-20T12:01:11.964Z,5.61
2017-12-20T12:02:11.939Z,5.69
2017-12-20T12:03:11.922Z,5.66
2017-12-20T12:04:11.891Z,5.69
2017-12-20T12:05:11.864Z,5.69
2017-12-20T12:06:11.841Z,5.73
2017-12-20T12:07:11.812Z,5.69
2017-12-20T12:08:11.788Z,5.72
2017-12-20T12:09:11.762Z,5.66
2017-12-20T12:10:11.737Z,5.73
2017-12-20T12:11:11.714Z,5.80
2017-12-20T12:12:11.687Z,5.77
2017-12-20T12:13:11.662Z,5.88
2017-12-20T12:14:12.553Z,5.87
2017-12-20T12:15:11.612Z,5.77
2017-12-20T12:16:11.690Z,5.82
2017-12-20T12:17:11.566Z,5.91
2017-12-20T12:18:11.545Z,5.80
2017-12-20T12:19:11.532Z,5.88
2017-12-20T12:20:11.533Z,5.87
2017-12-20T12:21:11.466Z,5.84
2017-12-20T12:22:11.441Z,5.88
2017-12-20T12:23:11.414Z,5.84
2017-12-20T12:24:11.390Z,5.88
2017-12-20T12:25:11.371Z,5.88
2017-12-20T12:26:11.519Z,5.85
2017-12-20T12:27:11.322Z,5.85
2017-12-20T12:28:11.289Z,5.91
2017-12-20T12:29:11.266Z,5.94
2017-12-20T12:30:11.243Z,5.95
2017-12-20T12:31:11.224Z,5.95
2017-12-20T12:32:11.197Z,5.97
2017-12-20T12:33:11.170Z,5.97
2017-12-20T12:34:11.143Z,5.98
2017-12-20T12:35:11.120Z,6.00
2017-12-20T12:36:11.253Z,5.91
2017-12-20T12:37:11.068Z,6.06
2017-12-20T12:38:11.043Z,6.05
2017-12-20T12:39:11.017Z,5.97
2017-12-20T12:40:10.993Z,6.02
2017-12-20T12:41:10.986Z,6.00
2017-12-20T12:42:10.947Z,6.03
2017-12-20T12:43:10.939Z,6.02
2017-12-20T12:44:10.892Z,6.06
2017-12-20T12:45:10.872Z,6.06
2017-12-20T12:46:10.843Z,6.03
2017-12-20T12:47:10.822Z,6.03
2017-12-20T12:48:10.795Z,6.09
2017-12-20T12:49:10.772Z,5.98
2017-12-20T12:50:10.746Z,6.08
2017-12-20T12:51:10.721Z,6.05
2017-12-20T12:52:10.696Z,6.05
2017-12-20T12:53:10.704Z,6.11
2017-12-20T12:54:10.645Z,6.06
2017-12-20T12:55:10.640Z,6.05
2017-12-20T12:56:10.603Z,6.05
2017-12-20T12:57:10.583Z,6.12
2017-12-20T12:58:10.619Z,6.11
2017-12-20T12:59:10.655Z,6.05
2017-12-20T13:00:10.531Z,6.12
2017-12-20T13:01:10.480Z,6.06
2017-12-20T13:02:10.507Z,6.03
2017-12-20T13:03:10.428Z,6.06
2017-12-20T13:04:10.401Z,6.09
2017-12-20T13:05:10.460Z,6.11
2017-12-20T13:06:10.374Z,6.11
2017-12-20T13:07:10.329Z,6.09
2017-12-20T13:08:10.399Z,6.12
2017-12-20T13:09:10.280Z,6.06
2017-12-20T13:10:10.251Z,6.05
2017-12-20T13:11:10.234Z,6.12
2017-12-20T13:12:10.200Z,6.15
2017-12-20T13:13:10.180Z,6.15
2017-12-20T13:14:10.157Z,6.15
2017-12-20T13:15:10.144Z,6.12
2017-12-20T13:16:10.159Z,6.09
2017-12-20T13:17:10.078Z,6.11
2017-12-20T13:18:10.055Z,6.05
2017-12-20T13:19:10.030Z,6.15
2017-12-20T13:20:10.009Z,6.06
2017-12-20T13:21:09.981Z,6.16
2017-12-20T13:22:09.968Z,6.12
2017-12-20T13:23:09.931Z,6.15
2017-12-20T13:24:09.905Z,6.13
2017-12-20T13:25:09.882Z,6.08
2017-12-20T13:26:09.892Z,6.13
2017-12-20T13:27:09.837Z,6.12
2017-12-20T13:28:09.818Z,6.03
2017-12-20T13:29:10.020Z,6.08
2017-12-20T13:30:09.796Z,6.06
2017-12-20T13:31:09.777Z,6.05
2017-12-20T13:32:09.712Z,6.09
2017-12-20T13:33:09.689Z,6.09
2017-12-20T13:34:09.710Z,6.11
2017-12-20T13:35:09.681Z,6.05
2017-12-20T13:36:09.614Z,6.05
2017-12-20T13:37:09.589Z,6.11
2017-12-20T13:38:09.563Z,6.09
2017-12-20T13:39:09.545Z,6.11
2017-12-20T13:40:09.515Z,6.06
2017-12-20T13:41:09.483Z,6.06
2017-12-20T13:42:09.462Z,6.09
2017-12-20T13:43:09.440Z,6.08
2017-12-20T13:44:09.415Z,6.05
2017-12-20T13:45:09.389Z,6.11
2017-12-20T13:46:09.362Z,6.06
2017-12-20T13:47:09.340Z,6.06
2017-12-20T13:48:09.322Z,6.05
2017-12-20T13:49:09.287Z,5.95
2017-12-20T13:50:09.266Z,6.08
2017-12-20T13:51:09.241Z,6.02
2017-12-20T13:52:09.226Z,6.06
2017-12-20T13:53:09.197Z,6.06
2017-12-20T13:54:09.173Z,6.05
2017-12-20T13:55:09.143Z,5.97
2017-12-20T13:56:09.120Z,5.97
2017-12-20T13:57:09.093Z,5.97
2017-12-20T13:58:09.066Z,5.97
2017-12-20T13:59:09.045Z,5.97
2017-12-20T14:00:09.018Z,6.00
2017-12-20T14:01:09.003Z,6.00
2017-12-20T14:02:08.966Z,5.97
2017-12-20T14:03:08.945Z,5.94
2017-12-20T14:04:09.536Z,6.02
2017-12-20T14:05:08.907Z,5.97
2017-12-20T14:06:08.959Z,6.00
2017-12-20T14:07:08.847Z,5.93
2017-12-20T14:08:08.862Z,5.93
2017-12-20T14:09:08.810Z,6.00
2017-12-20T14:10:08.988Z,6.06
2017-12-20T14:11:08.949Z,5.98
2017-12-20T14:12:08.914Z,5.91
2017-12-20T14:13:08.794Z,5.94
2017-12-20T14:14:08.688Z,6.06
2017-12-20T14:15:08.645Z,6.02
2017-12-20T14:16:08.624Z,5.95
2017-12-20T14:17:08.605Z,6.00
2017-12-20T14:18:08.621Z,5.97
2017-12-20T14:19:08.560Z,6.03
2017-12-20T14:20:08.542Z,6.02
2017-12-20T14:21:08.601Z,6.02
2017-12-20T14:22:08.476Z,6.02
2017-12-20T14:23:08.453Z,6.08
2017-12-20T14:24:08.576Z,6.00
2017-12-20T14:25:08.413Z,6.05
2017-12-20T14:26:08.375Z,6.02
2017-12-20T14:27:08.351Z,6.05
2017-12-20T14:28:08.588Z,6.05
2017-12-20T14:29:08.305Z,6.05
2017-12-20T14:30:08.282Z,6.08
2017-12-20T14:31:08.253Z,6.00
2017-12-20T14:32:08.286Z,6.06
2017-12-20T14:33:08.212Z,6.02
2017-12-20T14:34:08.180Z,6.09
2017-12-20T14:35:08.156Z,6.03
2017-12-20T14:36:08.126Z,6.02
2017-12-20T14:37:08.199Z,6.05
2017-12-20T14:38:08.088Z,5.97
2017-12-20T14:39:08.125Z,6.02
2017-12-20T14:40:08.043Z,5.94
2017-12-20T14:41:08.177Z,6.00
2017-12-20T14:42:07.980Z,6.03
2017-12-20T14:43:07.962Z,5.91
2017-12-20T14:44:07.951Z,5.91
2017-12-20T14:45:07.943Z,6.02
2017-12-20T14:46:07.880Z,5.95
2017-12-20T14:47:07.860Z,5.94
2017-12-20T14:48:07.834Z,6.02
2017-12-20T14:49:07.847Z,5.91
2017-12-20T14:50:07.783Z,5.95
2017-12-20T14:51:07.757Z,5.97
2017-12-20T14:52:07.883Z,5.98
2017-12-20T14:53:07.742Z,5.95
2017-12-20T14:54:07.688Z,6.03
2017-12-20T14:55:07.657Z,5.90
2017-12-20T14:56:07.694Z,6.02
2017-12-20T14:57:07.675Z,6.06
2017-12-20T14:58:07.596Z,6.06
2017-12-20T14:59:07.558Z,6.05
2017-12-20T15:00:07.533Z,5.94
2017-12-20T15:01:07.519Z,5.94
2017-12-20T15:02:07.484Z,6.00
2017-12-20T15:03:07.461Z,5.97
2017-12-20T15:04:07.436Z,5.94
2017-12-20T15:05:07.407Z,5.95
2017-12-20T15:06:07.384Z,5.98
2017-12-20T15:07:07.362Z,5.91
2017-12-20T15:08:07.336Z,6.02
2017-12-20T15:09:07.627Z,6.03
2017-12-20T15:10:07.288Z,5.88
2017-12-20T15:11:07.262Z,5.93
2017-12-20T15:12:14.021Z,5.91
2017-12-20T15:13:07.210Z,5.98
2017-12-20T15:14:07.237Z,5.94
2017-12-20T15:15:07.170Z,5.93
2017-12-20T15:16:07.152Z,5.97
2017-12-20T15:17:07.131Z,5.97
2017-12-20T15:18:07.091Z,5.97
2017-12-20T15:19:07.109Z,6.00
2017-12-20T15:20:07.042Z,5.97
2017-12-20T15:21:07.010Z,5.95
2017-12-20T15:22:06.986Z,5.93
2017-12-20T15:23:06.965Z,5.88
2017-12-20T15:24:06.940Z,5.91
2017-12-20T15:25:06.921Z,5.91
2017-12-20T15:26:06.930Z,5.88
2017-12-20T15:27:06.863Z,5.97
2017-12-20T15:28:06.840Z,5.90
2017-12-20T15:29:06.825Z,5.95
2017-12-20T15:30:06.796Z,5.98
2017-12-20T15:31:06.770Z,5.94
2017-12-20T15:32:06.741Z,5.91
2017-12-20T15:33:06.717Z,5.94
2017-12-20T15:34:06.689Z,5.94
2017-12-20T15:35:06.688Z,5.88
2017-12-20T15:36:06.842Z,5.90
2017-12-20T15:37:06.620Z,5.87
2017-12-20T15:38:06.789Z,5.94
2017-12-20T15:39:06.717Z,5.88
2017-12-20T15:40:06.543Z,5.87
2017-12-20T15:41:06.569Z,5.88
2017-12-20T15:42:06.502Z,5.87
2017-12-20T15:43:06.475Z,5.91
2017-12-20T15:44:06.444Z,5.91
2017-12-20T15:45:06.449Z,5.88
2017-12-20T15:46:06.401Z,5.85
2017-12-20T15:47:06.386Z,5.88
2017-12-20T15:48:06.349Z,5.95
2017-12-20T15:49:06.333Z,5.87
2017-12-20T15:50:06.302Z,5.91
2017-12-20T15:51:06.280Z,5.85
2017-12-20T15:52:06.256Z,5.91
2017-12-20T15:53:06.232Z,5.85
2017-12-20T15:54:06.208Z,5.90
2017-12-20T15:55:06.302Z,5.90
2017-12-20T15:56:06.158Z,5.91
2017-12-20T15:57:06.199Z,5.84
2017-12-20T15:58:06.123Z,5.91
2017-12-20T15:59:06.079Z,5.85
2017-12-20T16:00:06.045Z,5.85